| time (UTC) | temp F | wind direction | speed knots | gust knots | rain 1hr in | rain 24hr in | rain mn in | humidity % | barometer mb |
| 20260504012700 | 58 | 242 | 7.8 | 13.0 | 0.00 | 0.00 | 0.00 | 54 | 1010.8 |
| 20260504012154 | 58 | 240 | 7.8 | 13.0 | 0.00 | 0.00 | 0.00 | 54 | 1010.8 |
| 20260504011643 | 59 | 229 | 7.8 | 13.0 | 0.00 | 0.00 | 0.00 | 53 | 1010.7 |
| 20260504011142 | 59 | 224 | 8.7 | 14.8 | 0.00 | 0.00 | 0.00 | 53 | 1010.6 |
| 20260504010637 | 59 | 226 | 8.7 | 14.8 | 0.00 | 0.00 | 0.00 | 53 | 1010.7 |
| 20260504010131 | 59 | 219 | 8.7 | 15.6 | 0.00 | 0.00 | 0.00 | 53 | 1010.7 |
| 20260504010112 | 59 | 211 | 8.7 | 15.6 | 0.00 | 0.00 | 0.00 | 52 | 1010.6 |
| 20260504005335 | 59 | 234 | 9.6 | 15.6 | 0.00 | 0.00 | 0.00 | 53 | 1010.5 |
| 20260504004612 | 59 | 234 | 10.4 | 17.4 | 0.00 | 0.00 | 0.00 | 53 | 1010.5 |
| 20260504004324 | 59 | 225 | 9.6 | 17.4 | 0.00 | 0.00 | 0.00 | 53 | 1010.7 |
| 20260504003559 | 59 | 217 | 8.7 | 13.9 | 0.00 | 0.00 | 0.00 | 53 | 1010.7 |
| 20260504003053 | 59 | 239 | 8.7 | 15.6 | 0.00 | 0.00 | 0.00 | 54 | 1010.8 |
| 20260504002806 | 59 | 207 | 7.8 | 15.6 | 0.00 | 0.00 | 0.00 | 53 | 1010.7 |
| 20260504002042 | 59 | 234 | 7.8 | 13.0 | 0.00 | 0.00 | 0.00 | 53 | 1010.6 |
| 20260504001530 | 59 | 230 | 7.8 | 13.9 | 0.00 | 0.00 | 0.00 | 54 | 1010.6 |
| 20260504001030 | 59 | 255 | 7.8 | 13.9 | 0.00 | 0.00 | 0.00 | 54 | 1010.5 |
| 20260504000523 | 58 | 223 | 7.8 | 14.8 | 0.00 | 0.00 | 0.00 | 55 | 1010.5 |
| 20260504000017 | 58 | 230 | 8.7 | 14.8 | 0.00 | 0.00 | 0.00 | 56 | 1010.7 |
| 20260503235512 | 58 | 209 | 8.7 | 15.6 | 0.00 | 0.00 | 0.00 | 58 | 1011.0 |
| 20260503235227 | 58 | 239 | 7.8 | 15.6 | 0.00 | 0.00 | 0.00 | 57 | 1011.0 |
| 20260503234500 | 58 | 221 | 8.7 | 14.8 | 0.00 | 0.00 | 0.00 | 54 | 1010.9 |
| 20260503234210 | 58 | 238 | 9.6 | 14.8 | 0.00 | 0.00 | 0.00 | 54 | 1011.3 |
| 20260503233448 | 58 | 254 | 9.6 | 15.6 | 0.00 | 0.00 | 0.00 | 55 | 1011.4 |
| 20260503232942 | 58 | 229 | 9.6 | 19.1 | 0.00 | 0.00 | 0.00 | 56 | 1011.0 |
| 20260503232436 | 58 | 224 | 9.6 | 19.1 | 0.00 | 0.00 | 0.00 | 56 | 1010.6 |
| 20260503231930 | 58 | 227 | 7.8 | 15.6 | 0.00 | 0.00 | 0.00 | 55 | 1010.7 |
| 20260503231424 | 58 | 224 | 5.2 | 11.3 | 0.00 | 0.00 | 0.00 | 56 | 1011.2 |
| 20260503230918 | 59 | 231 | 7.0 | 11.3 | 0.00 | 0.00 | 0.00 | 55 | 1011.2 |
| 20260503230634 | 59 | 237 | 7.8 | 11.3 | 0.00 | 0.00 | 0.00 | 54 | 1011.4 |
| 20260503225905 | 59 | 236 | 7.0 | 11.3 | 0.00 | 0.00 | 0.00 | 52 | 1011.3 |
| 20260503225359 | 59 | 221 | 7.0 | 13.9 | 0.00 | 0.00 | 0.00 | 53 | 1011.4 |
| 20260503224849 | 60 | 225 | 7.8 | 13.9 | 0.00 | 0.00 | 0.00 | 50 | 1011.4 |
| 20260503224347 | 60 | 205 | 7.0 | 13.9 | 0.00 | 0.00 | 0.00 | 50 | 1011.5 |
| 20260503223841 | 60 | 225 | 7.0 | 13.9 | 0.00 | 0.00 | 0.00 | 48 | 1011.5 |
| 20260503223335 | 60 | 217 | 8.7 | 14.8 | 0.00 | 0.00 | 0.00 | 48 | 1011.3 |
| 20260503222829 | 60 | 223 | 8.7 | 19.1 | 0.00 | 0.00 | 0.00 | 48 | 1011.3 |
| 20260503222320 | 61 | 243 | 8.7 | 19.1 | 0.00 | 0.00 | 0.00 | 47 | 1011.4 |
| 20260503221817 | 61 | 238 | 11.3 | 19.1 | 0.00 | 0.00 | 0.00 | 46 | 1011.7 |
| 20260503221311 | 61 | 214 | 13.9 | 23.5 | 0.00 | 0.00 | 0.00 | 44 | 1011.8 |
| 20260503220806 | 61 | 246 | 13.9 | 23.5 | 0.00 | 0.00 | 0.00 | 44 | 1012.0 |
| 20260503220301 | 61 | 238 | 12.2 | 19.1 | 0.00 | 0.00 | 0.00 | 43 | 1012.0 |
| 20260503215755 | 61 | 224 | 11.3 | 19.1 | 0.00 | 0.00 | 0.00 | 43 | 1011.8 |
| 20260503215510 | 61 | 205 | 11.3 | 19.1 | 0.00 | 0.00 | 0.00 | 43 | 1011.7 |
| 20260503214738 | 62 | 238 | 12.2 | 19.1 | 0.00 | 0.00 | 0.00 | 42 | 1011.7 |
| 20260503214236 | 62 | 240 | 13.0 | 19.1 | 0.00 | 0.00 | 0.00 | 41 | 1011.8 |
| 20260503213730 | 62 | 236 | 13.0 | 20.9 | 0.00 | 0.00 | 0.00 | 41 | 1012.0 |
| 20260503213223 | 62 | 231 | 11.3 | 20.9 | 0.00 | 0.00 | 0.00 | 40 | 1012.2 |
| 20260503212719 | 62 | 240 | 11.3 | 18.2 | 0.00 | 0.00 | 0.00 | 40 | 1012.2 |
| 20260503212207 | 62 | 236 | 11.3 | 19.1 | 0.00 | 0.00 | 0.00 | 42 | 1012.5 |
| 20260503211925 | 62 | 219 | 13.0 | 22.6 | 0.00 | 0.00 | 0.00 | 41 | 1012.7 |
| 20260503211201 | 62 | 250 | 13.0 | 22.6 | 0.00 | 0.00 | 0.00 | 40 | 1013.1 |
| 20260503210655 | 62 | 226 | 11.3 | 22.6 | 0.00 | 0.00 | 0.00 | 40 | 1013.0 |
| 20260503210149 | 62 | 236 | 12.2 | 22.6 | 0.00 | 0.00 | 0.00 | 39 | 1013.2 |
| 20260503205643 | 62 | 240 | 13.0 | 22.6 | 0.00 | 0.00 | 0.00 | 39 | 1013.3 |
| 20260503205136 | 62 | 254 | 11.3 | 19.1 | 0.00 | 0.00 | 0.00 | 39 | 1013.3 |
| 20260503204624 | 62 | 197 | 11.3 | 18.2 | 0.00 | 0.00 | 0.00 | 39 | 1013.4 |
| 20260503204123 | 62 | 232 | 9.6 | 18.2 | 0.00 | 0.00 | 0.00 | 39 | 1013.4 |
| 20260503203617 | 63 | 239 | 10.4 | 20.9 | 0.00 | 0.00 | 0.00 | 39 | 1013.7 |
| 20260503203111 | 63 | 246 | 12.2 | 20.9 | 0.00 | 0.00 | 0.00 | 37 | 1013.6 |
| 20260503202606 | 64 | 245 | 11.3 | 21.7 | 0.00 | 0.00 | 0.00 | 38 | 1013.8 |
| 20260503202056 | 64 | 261 | 11.3 | 21.7 | 0.00 | 0.00 | 0.00 | 35 | 1013.6 |
| 20260503201817 | 63 | 205 | 13.9 | 23.5 | 0.00 | 0.00 | 0.00 | 39 | 1013.6 |
| 20260503201049 | 62 | 243 | 13.9 | 23.5 | 0.00 | 0.00 | 0.00 | 39 | 1013.9 |
| 20260503200541 | 63 | 240 | 13.0 | 22.6 | 0.00 | 0.00 | 0.00 | 37 | 1014.0 |
| 20260503200035 | 62 | 220 | 12.2 | 19.1 | 0.00 | 0.00 | 0.00 | 37 | 1013.9 |
| 20260503195757 | 64 | 220 | 12.2 | 18.2 | 0.00 | 0.00 | 0.00 | 38 | 1014.2 |
| 20260503195246 | 63 | 224 | 11.3 | 19.1 | 0.00 | 0.00 | 0.00 | 38 | 1014.4 |
| 20260503194513 | 64 | 222 | 11.3 | 18.2 | 0.00 | 0.00 | 0.00 | 35 | 1014.3 |
| 20260503194011 | 63 | 267 | 11.3 | 20.9 | 0.00 | 0.00 | 0.00 | 36 | 1014.3 |
| 20260503193505 | 63 | 261 | 10.4 | 20.9 | 0.00 | 0.00 | 0.00 | 36 | 1014.1 |
| 20260503192959 | 63 | 250 | 10.4 | 15.6 | 0.00 | 0.00 | 0.00 | 37 | 1014.2 |
| 20260503192454 | 63 | 223 | 10.4 | 15.6 | 0.00 | 0.00 | 0.00 | 39 | 1014.1 |
| 20260503191944 | 63 | 273 | 10.4 | 17.4 | 0.00 | 0.00 | 0.00 | 37 | 1014.2 |
| 20260503191442 | 62 | 276 | 10.4 | 17.4 | 0.00 | 0.00 | 0.00 | 35 | 1014.5 |
| 20260503191159 | 62 | 244 | 9.6 | 15.6 | 0.00 | 0.00 | 0.00 | 37 | 1014.6 |
| 20260503190429 | 63 | 234 | 8.7 | 14.8 | 0.00 | 0.00 | 0.00 | 37 | 1014.6 |
| 20260503185923 | 63 | 250 | 8.7 | 17.4 | 0.00 | 0.00 | 0.00 | 38 | 1014.6 |
| 20260503185416 | 62 | 261 | 11.3 | 19.1 | 0.00 | 0.00 | 0.00 | 38 | 1014.9 |
| 20260503184911 | 62 | 218 | 12.2 | 19.1 | 0.00 | 0.00 | 0.00 | 38 | 1015.0 |
| 20260503184400 | 60 | 202 | 10.4 | 16.5 | 0.00 | 0.00 | 0.00 | 39 | 1015.2 |
| 20260503183900 | 61 | 250 | 8.7 | 14.8 | 0.00 | 0.00 | 0.00 | 37 | 1015.4 |
| 20260503183354 | 61 | 223 | 8.7 | 14.8 | 0.00 | 0.00 | 0.00 | 38 | 1015.2 |
| 20260503182848 | 61 | 271 | 8.7 | 14.8 | 0.00 | 0.00 | 0.00 | 35 | 1015.4 |
| 20260503182342 | 61 | 300 | 7.8 | 13.9 | 0.00 | 0.00 | 0.00 | 37 | 1015.6 |
| 20260503181832 | 61 | 246 | 7.8 | 18.2 | 0.00 | 0.00 | 0.00 | 36 | 1015.8 |
| 20260503181330 | 61 | 253 | 7.8 | 18.2 | 0.00 | 0.00 | 0.00 | 35 | 1015.8 |
| 20260503180823 | 62 | 261 | 7.8 | 14.8 | 0.00 | 0.00 | 0.00 | 37 | 1015.9 |
| 20260503180317 | 61 | 292 | 7.0 | 13.0 | 0.00 | 0.00 | 0.00 | 35 | 1015.9 |
| 20260503175811 | 61 | 271 | 8.7 | 14.8 | 0.00 | 0.00 | 0.00 | 37 | 1016.0 |
| 20260503175525 | 60 | 233 | 11.3 | 17.4 | 0.00 | 0.00 | 0.00 | 35 | 1016.2 |
| 20260503174759 | 60 | 248 | 10.4 | 17.4 | 0.00 | 0.00 | 0.00 | 33 | 1016.5 |
| 20260503174248 | 60 | 249 | 8.7 | 16.5 | 0.00 | 0.00 | 0.00 | 35 | 1016.3 |
| 20260503173747 | 60 | 261 | 9.6 | 18.2 | 0.00 | 0.00 | 0.00 | 36 | 1016.5 |
| 20260503173241 | 60 | 234 | 9.6 | 18.2 | 0.00 | 0.00 | 0.00 | 35 | 1016.5 |
| 20260503172735 | 59 | 286 | 9.6 | 16.5 | 0.00 | 0.00 | 0.00 | 36 | 1016.5 |
| 20260503172229 | 59 | 252 | 8.7 | 15.6 | 0.00 | 0.00 | 0.00 | 35 | 1016.7 |
| 20260503171719 | 59 | 263 | 8.7 | 15.6 | 0.00 | 0.00 | 0.00 | 37 | 1016.5 |
| 20260503171217 | 59 | 238 | 11.3 | 17.4 | 0.00 | 0.00 | 0.00 | 37 | 1016.7 |
| 20260503170936 | 59 | 222 | 11.3 | 19.1 | 0.00 | 0.00 | 0.00 | 35 | 1016.8 |
| 20260503170206 | 60 | 259 | 10.4 | 16.5 | 0.00 | 0.00 | 0.00 | 35 | 1016.8 |
| 20260503150444 | 56 | 262 | 8.7 | 16.5 | 0.00 | 0.00 | 0.00 | 41 | 1018.5 |
| 20260503131224 | 47 | 232 | 4.3 | 7.0 | 0.00 | 0.00 | 0.00 | 66 | 1019.0 |
| 20260503130722 | 46 | 240 | 4.3 | 7.0 | 0.00 | 0.00 | 0.00 | 66 | 1019.0 |
| 20260503130211 | 45 | 230 | 5.2 | 7.0 | 0.00 | 0.00 | 0.00 | 66 | 1019.0 |
| 20260503110630 | 38 | 194 | 1.7 | 3.5 | 0.00 | 0.00 | 0.00 | 73 | 1018.2 |
| 20260503110118 | 38 | 198 | 2.6 | 5.2 | 0.00 | 0.00 | 0.00 | 72 | 1018.1 |
| 20260503081017 | 41 | 242 | 2.6 | 4.3 | 0.00 | 0.00 | 0.00 | 64 | 1017.7 |
| 20260503080735 | 41 | 244 | 2.6 | 5.2 | 0.00 | 0.00 | 0.00 | 62 | 1017.8 |
| 20260503072501 | 40 | 254 | 3.5 | 4.3 | 0.00 | 0.00 | 0.00 | 69 | 1017.8 |
| 20260503072000 | 41 | 260 | 3.5 | 5.2 | 0.00 | 0.00 | 0.00 | 68 | 1017.8 |
| 20260503071501 | 41 | 252 | 2.6 | 5.2 | 0.00 | 0.00 | 0.00 | 69 | 1017.8 |
| 20260503071001 | 41 | 246 | 2.6 | 3.5 | 0.00 | 0.00 | 0.00 | 69 | 1017.9 |
| 20260503070501 | 41 | 242 | 1.7 | 3.5 | 0.00 | 0.00 | 0.00 | 67 | 1017.8 |
| 20260503054937 | 43 | 244 | 2.6 | 4.3 | 0.00 | 0.00 | 0.00 | 64 | 1018.2 |
| 20260503054645 | 43 | 245 | 3.5 | 3.5 | 0.00 | 0.00 | 0.00 | 61 | 1018.2 |
| 20260503053916 | 43 | 249 | 2.6 | 3.5 | 0.00 | 0.00 | 0.00 | 62 | 1018.3 |
| 20260503053410 | 43 | 248 | 2.6 | 3.5 | 0.00 | 0.00 | 0.00 | 62 | 1018.4 |
| 20260503052900 | 43 | 251 | 2.6 | 3.5 | 0.00 | 0.00 | 0.00 | 59 | 1018.4 |
| 20260503052356 | 43 | 252 | 2.6 | 3.5 | 0.00 | 0.00 | 0.00 | 60 | 1018.4 |
| 20260503052109 | 43 | 253 | 2.6 | 3.5 | 0.00 | 0.00 | 0.00 | 62 | 1018.4 |
| 20260503051602 | 43 | 246 | 2.6 | 3.5 | 0.00 | 0.00 | 0.00 | 63 | 1018.4 |
| 20260503050830 | 42 | 248 | 2.6 | 3.5 | 0.00 | 0.00 | 0.00 | 63 | 1018.4 |
| 20260503050324 | 42 | 260 | 3.5 | 4.3 | 0.00 | 0.00 | 0.00 | 64 | 1018.5 |
| 20260503045812 | 42 | 261 | 3.5 | 4.3 | 0.00 | 0.00 | 0.00 | 64 | 1018.5 |
| 20260503045310 | 42 | 270 | 3.5 | 3.5 | 0.00 | 0.00 | 0.00 | 65 | 1018.5 |
| 20260503045023 | 42 | 260 | 2.6 | 3.5 | 0.00 | 0.00 | 0.00 | 65 | 1018.4 |
| 20260503044524 | 42 | 254 | 2.6 | 3.5 | 0.00 | 0.00 | 0.00 | 66 | 1018.4 |
| 20260503043752 | 42 | 259 | 2.6 | 3.5 | 0.00 | 0.00 | 0.00 | 65 | 1018.4 |
| 20260503043247 | 43 | 262 | 2.6 | 3.5 | 0.00 | 0.00 | 0.00 | 64 | 1018.3 |
| 20260503042742 | 44 | 256 | 2.6 | 2.6 | 0.00 | 0.00 | 0.00 | 61 | 1018.2 |
| 20260503042231 | 44 | 254 | 2.6 | 2.6 | 0.00 | 0.00 | 0.00 | 59 | 1018.2 |
| 20260503041727 | 44 | 259 | 2.6 | 2.6 | 0.00 | 0.00 | 0.00 | 60 | 1018.1 |
| 20260503041226 | 44 | 260 | 2.6 | 2.6 | 0.00 | 0.00 | 0.00 | 59 | 1018.1 |
| 20260503040726 | 44 | 262 | 1.7 | 2.6 | 0.00 | 0.00 | 0.00 | 61 | 1018.1 |
| 20260503040435 | 44 | 254 | 1.7 | 1.7 | 0.00 | 0.00 | 0.00 | 60 | 1018.1 |
| 20260503040318 | 44 | 261 | 1.7 | 2.6 | 0.00 | 0.00 | 0.00 | 60 | 1018.1 |
| 20260503035223 | 45 | 257 | 1.7 | 2.6 | 0.00 | 0.00 | 0.00 | 61 | 1018.2 |
| 20260503034724 | 45 | 254 | 1.7 | 2.6 | 0.00 | 0.00 | 0.00 | 59 | 1018.2 |
| 20260503034224 | 45 | 257 | 0.9 | 1.7 | 0.00 | 0.00 | 0.00 | 58 | 1018.2 |
| 20260503033724 | 46 | 265 | 0.9 | 1.7 | 0.00 | 0.00 | 0.00 | 54 | 1018.2 |
| 20260503033223 | 46 | 265 | 0.9 | 1.7 | 0.00 | 0.00 | 0.00 | 50 | 1018.2 |
| 20260503032942 | 47 | 265 | 0.9 | 1.7 | 0.00 | 0.00 | 0.00 | 48 | 1018.1 |
| 20260503032219 | 47 | 336 | 0.9 | 1.7 | 0.00 | 0.00 | 0.00 | 46 | 1018.2 |
| 20260503031708 | 47 | 347 | 1.7 | 1.7 | 0.00 | 0.00 | 0.00 | 45 | 1018.3 |
| 20260503031208 | 47 | 0 | 1.7 | 1.7 | 0.00 | 0.00 | 0.00 | 45 | 1018.3 |
| 20260503030708 | 47 | 9 | 1.7 | 1.7 | 0.00 | 0.00 | 0.00 | 45 | 1018.3 |
| 20260503030208 | 47 | 11 | 1.7 | 1.7 | 0.00 | 0.00 | 0.00 | 46 | 1018.3 |
| 20260503025708 | 47 | 0 | 1.7 | 1.7 | 0.00 | 0.00 | 0.00 | 46 | 1018.2 |
| 20260503025417 | 47 | 355 | 1.7 | 1.7 | 0.00 | 0.00 | 0.00 | 45 | 1018.2 |
| 20260503025259 | 47 | 0 | 1.7 | 1.7 | 0.00 | 0.00 | 0.00 | 46 | 1018.3 |
| 20260503024208 | 47 | 0 | 1.7 | 1.7 | 0.00 | 0.00 | 0.00 | 46 | 1018.2 |
| 20260503023707 | 47 | 5 | 1.7 | 2.6 | 0.00 | 0.00 | 0.00 | 47 | 1018.1 |
| 20260503023429 | 47 | 355 | 1.7 | 2.6 | 0.00 | 0.00 | 0.00 | 46 | 1018.1 |
| 20260503022651 | 47 | 13 | 1.7 | 2.6 | 0.00 | 0.00 | 0.00 | 47 | 1018.1 |
| 20260503022151 | 47 | 349 | 1.7 | 2.6 | 0.00 | 0.00 | 0.00 | 46 | 1018.0 |
| 20260503021652 | 47 | 0 | 1.7 | 2.6 | 0.00 | 0.00 | 0.00 | 46 | 1018.0 |
| 20260503021151 | 47 | 12 | 1.7 | 2.6 | 0.00 | 0.00 | 0.00 | 46 | 1018.0 |
| 20260503020652 | 47 | 9 | 1.7 | 2.6 | 0.00 | 0.00 | 0.00 | 47 | 1018.0 |
| 20260503020414 | 47 | 0 | 1.7 | 2.6 | 0.00 | 0.00 | 0.00 | 46 | 1017.9 |
| 20260503015652 | 47 | 22 | 1.7 | 2.6 | 0.00 | 0.00 | 0.00 | 47 | 1017.9 |
| 20260503015151 | 47 | 14 | 1.7 | 2.6 | 0.00 | 0.00 | 0.00 | 47 | 1017.8 |
| 20260503014652 | 47 | 19 | 1.7 | 2.6 | 0.00 | 0.00 | 0.00 | 47 | 1017.7 |
| 20260503014147 | 47 | 17 | 1.7 | 2.6 | 0.00 | 0.00 | 0.00 | 47 | 1017.7 |
| 20260503013636 | 47 | 13 | 1.7 | 2.6 | 0.00 | 0.00 | 0.00 | 46 | 1017.6 |
| 20260503013403 | 47 | 36 | 0.9 | 2.6 | 0.00 | 0.00 | 0.00 | 46 | 1017.6 |